Terminal Aerodrome Forecast
Issued by NWS

Current Version | Previous Version | Text Only | Print | Product List | Glossary On
Versions: 1 2 3 4 5 6 7 8 9 10 11 12 13 14 15 16 17
000
FTAK31 PAJN 262339
TAFAYA
TAF
PAYA 262339Z 2700/2724 34004KT P6SM SCT035
      TEMPO 2702/2706 2SM BR BKN012
     FM270900 00000KT P6SM SCT050
     FM272000 09007KT P6SM VCSH BKN050
      AMD LTD TO CLD VIS AND WIND 2701/2709=

USA.gov is the U.S. government's official web portal to all federal, state and local government web resources and services.